sensor_id;sensor_type;location;lat;lon;timestamp;pressure;altitude;pressure_sealevel;temperature;humidity
33189;BME280;52601;53.070;10.600;2022-12-29T00:02:36;99950.84;;;8.34;100.00
33189;BME280;52601;53.070;10.600;2022-12-29T00:05:23;99965.22;;;8.43;100.00
33189;BME280;52601;53.070;10.600;2022-12-29T00:08:08;99956.50;;;8.25;100.00
33189;BME280;52601;53.070;10.600;2022-12-29T00:10:54;99970.13;;;8.32;100.00
33189;BME280;52601;53.070;10.600;2022-12-29T00:13:39;99967.88;;;8.41;100.00
33189;BME280;52601;53.070;10.600;2022-12-29T00:17:07;99953.72;;;8.45;100.00
33189;BME280;52601;53.070;10.600;2022-12-29T00:19:53;99952.66;;;8.49;100.00
33189;BME280;52601;53.070;10.600;2022-12-29T00:22:58;99955.25;;;8.49;100.00
33189;BME280;52601;53.070;10.600;2022-12-29T00:26:03;99952.41;;;8.54;100.00
33189;BME280;52601;53.070;10.600;2022-12-29T00:29:08;99959.34;;;8.55;100.00
33189;BME280;52601;53.070;10.600;2022-12-29T00:32:12;99947.28;;;8.52;100.00
33189;BME280;52601;53.070;10.600;2022-12-29T00:38:10;99938.19;;;8.59;100.00
33189;BME280;52601;53.070;10.600;2022-12-29T00:41:15;99924.84;;;8.48;100.00
33189;BME280;52601;53.070;10.600;2022-12-29T00:44:19;99918.13;;;8.60;100.00
33189;BME280;52601;53.070;10.600;2022-12-29T00:47:05;99896.25;;;8.45;100.00
33189;BME280;52601;53.070;10.600;2022-12-29T00:49:50;99912.56;;;8.50;100.00
33189;BME280;52601;53.070;10.600;2022-12-29T00:52:36;99912.47;;;8.52;100.00
33189;BME280;52601;53.070;10.600;2022-12-29T00:55:21;99921.84;;;8.56;100.00
33189;BME280;52601;53.070;10.600;2022-12-29T00:58:07;99917.13;;;8.62;100.00
33189;BME280;52601;53.070;10.600;2022-12-29T01:01:00;99919.41;;;8.68;100.00
33189;BME280;52601;53.070;10.600;2022-12-29T01:03:46;99903.56;;;8.72;100.00
33189;BME280;52601;53.070;10.600;2022-12-29T01:06:32;99902.47;;;8.76;100.00
33189;BME280;52601;53.070;10.600;2022-12-29T01:09:18;99911.00;;;8.79;100.00
33189;BME280;52601;53.070;10.600;2022-12-29T01:12:22;99898.69;;;8.81;100.00
33189;BME280;52601;53.070;10.600;2022-12-29T01:15:25;99904.59;;;8.85;100.00
33189;BME280;52601;53.070;10.600;2022-12-29T01:18:11;99896.34;;;8.77;100.00
33189;BME280;52601;53.070;10.600;2022-12-29T01:21:01;99902.47;;;8.76;100.00
33189;BME280;52601;53.070;10.600;2022-12-29T01:23:47;99885.78;;;8.78;100.00
33189;BME280;52601;53.070;10.600;2022-12-29T01:26:32;99900.91;;;8.89;100.00
33189;BME280;52601;53.070;10.600;2022-12-29T01:29:18;99894.81;;;8.88;100.00
33189;BME280;52601;53.070;10.600;2022-12-29T01:32:03;99882.00;;;8.84;100.00
33189;BME280;52601;53.070;10.600;2022-12-29T01:34:49;99893.63;;;8.94;100.00
33189;BME280;52601;53.070;10.600;2022-12-29T01:37:35;99886.22;;;9.02;100.00
33189;BME280;52601;53.070;10.600;2022-12-29T01:40:20;99873.16;;;9.02;100.00
33189;BME280;52601;53.070;10.600;2022-12-29T01:43:09;99863.88;;;8.96;100.00
33189;BME280;52601;53.070;10.600;2022-12-29T01:45:56;99861.25;;;8.96;100.00
33189;BME280;52601;53.070;10.600;2022-12-29T01:48:42;99872.91;;;9.06;100.00
33189;BME280;52601;53.070;10.600;2022-12-29T01:51:29;99795.31;;;8.76;100.00
33189;BME280;52601;53.070;10.600;2022-12-29T01:54:32;99838.97;;;9.05;100.00
33189;BME280;52601;53.070;10.600;2022-12-29T01:57:23;99838.63;;;9.11;100.00
33189;BME280;52601;53.070;10.600;2022-12-29T02:00:12;99822.72;;;9.00;100.00
33189;BME280;52601;53.070;10.600;2022-12-29T02:02:59;99836.63;;;9.00;100.00
33189;BME280;52601;53.070;10.600;2022-12-29T02:05:52;99835.22;;;8.95;100.00
33189;BME280;52601;53.070;10.600;2022-12-29T02:08:39;99828.13;;;8.97;100.00
33189;BME280;52601;53.070;10.600;2022-12-29T02:11:26;99850.78;;;9.12;100.00
33189;BME280;52601;53.070;10.600;2022-12-29T02:14:14;99829.56;;;9.02;100.00
33189;BME280;52601;53.070;10.600;2022-12-29T02:17:27;99829.22;;;9.08;100.00
33189;BME280;52601;53.070;10.600;2022-12-29T02:26:58;99837.81;;;9.10;100.00
33189;BME280;52601;53.070;10.600;2022-12-29T02:30:25;99816.38;;;9.04;100.00
33189;BME280;52601;53.070;10.600;2022-12-29T02:33:26;99831.63;;;9.11;100.00
33189;BME280;52601;53.070;10.600;2022-12-29T02:36:20;99830.63;;;9.14;100.00
33189;BME280;52601;53.070;10.600;2022-12-29T02:39:38;99815.03;;;9.12;100.00
33189;BME280;52601;53.070;10.600;2022-12-29T02:48:31;99817.97;;;9.22;100.00
33189;BME280;52601;53.070;10.600;2022-12-29T02:51:26;99818.63;;;9.25;100.00
33189;BME280;52601;53.070;10.600;2022-12-29T02:54:17;99795.69;;;9.15;100.00
33189;BME280;52601;53.070;10.600;2022-12-29T03:00:10;99800.41;;;9.24;100.00
33189;BME280;52601;53.070;10.600;2022-12-29T03:03:17;99784.81;;;9.22;100.00
33189;BME280;52601;53.070;10.600;2022-12-29T03:06:27;99799.19;;;9.29;100.00
33189;BME280;52601;53.070;10.600;2022-12-29T03:09:41;99792.78;;;9.35;100.00
33189;BME280;52601;53.070;10.600;2022-12-29T03:12:48;99786.22;;;9.28;100.00
33189;BME280;52601;53.070;10.600;2022-12-29T03:16:24;99781.75;;;9.30;100.00
33189;BME280;52601;53.070;10.600;2022-12-29T03:19:21;99777.81;;;9.37;100.00
33189;BME280;52601;53.070;10.600;2022-12-29T03:22:13;99772.03;;;9.32;100.00
33189;BME280;52601;53.070;10.600;2022-12-29T03:25:23;99771.03;;;9.34;100.00
33189;BME280;52601;53.070;10.600;2022-12-29T03:28:13;99767.00;;;9.43;100.00
33189;BME280;52601;53.070;10.600;2022-12-29T03:31:03;99775.50;;;9.46;100.00
33189;BME280;52601;53.070;10.600;2022-12-29T03:33:50;99762.44;;;9.46;100.00
33189;BME280;52601;53.070;10.600;2022-12-29T03:36:43;99771.88;;;9.49;100.00
33189;BME280;52601;53.070;10.600;2022-12-29T03:39:30;99765.72;;;9.50;100.00
33189;BME280;52601;53.070;10.600;2022-12-29T03:42:19;99762.00;;;9.54;100.00
33189;BME280;52601;53.070;10.600;2022-12-29T03:45:08;99756.56;;;9.57;100.00
33189;BME280;52601;53.070;10.600;2022-12-29T03:47:54;99732.06;;;9.44;100.00
33189;BME280;52601;53.070;10.600;2022-12-29T03:50:40;99735.44;;;9.46;100.00
33189;BME280;52601;53.070;10.600;2022-12-29T03:53:26;99727.50;;;9.47;100.00
33189;BME280;52601;53.070;10.600;2022-12-29T03:56:11;99731.25;;;9.57;100.00
33189;BME280;52601;53.070;10.600;2022-12-29T03:58:57;99733.28;;;9.67;100.00
33189;BME280;52601;53.070;10.600;2022-12-29T04:01:42;99740.97;;;9.70;100.00
33189;BME280;52601;53.070;10.600;2022-12-29T04:04:28;99733.41;;;9.65;100.00
33189;BME280;52601;53.070;10.600;2022-12-29T04:07:13;99702.63;;;9.54;100.00
33189;BME280;52601;53.070;10.600;2022-12-29T04:09:59;99727.25;;;9.66;100.00
33189;BME280;52601;53.070;10.600;2022-12-29T04:12:44;99722.94;;;9.65;100.00
33189;BME280;52601;53.070;10.600;2022-12-29T04:15:31;99737.25;;;9.74;100.00
33189;BME280;52601;53.070;10.600;2022-12-29T04:18:17;99711.34;;;9.69;100.00
33189;BME280;52601;53.070;10.600;2022-12-29T04:21:03;99729.56;;;9.71;100.00
33189;BME280;52601;53.070;10.600;2022-12-29T04:23:49;99712.56;;;9.64;100.00
33189;BME280;52601;53.070;10.600;2022-12-29T04:26:35;99729.47;;;9.58;100.00
33189;BME280;52601;53.070;10.600;2022-12-29T04:29:20;99738.88;;;9.46;100.00
33189;BME280;52601;53.070;10.600;2022-12-29T04:32:06;99725.34;;;9.40;100.00
33189;BME280;52601;53.070;10.600;2022-12-29T04:34:51;99714.47;;;9.32;100.00
33189;BME280;52601;53.070;10.600;2022-12-29T04:37:37;99721.47;;;9.31;100.00
33189;BME280;52601;53.070;10.600;2022-12-29T04:40:22;99722.06;;;9.36;100.00
33189;BME280;52601;53.070;10.600;2022-12-29T04:43:09;99699.25;;;9.24;100.00
33189;BME280;52601;53.070;10.600;2022-12-29T04:45:55;99693.66;;;9.30;100.00
33189;BME280;52601;53.070;10.600;2022-12-29T04:48:41;99697.75;;;9.20;100.00
33189;BME280;52601;53.070;10.600;2022-12-29T04:51:26;99687.94;;;9.24;100.00
33189;BME280;52601;53.070;10.600;2022-12-29T04:54:11;99697.28;;;9.28;100.00
33189;BME280;52601;53.070;10.600;2022-12-29T04:56:57;99685.97;;;9.27;100.00
33189;BME280;52601;53.070;10.600;2022-12-29T04:59:42;99693.81;;;9.27;100.00
33189;BME280;52601;53.070;10.600;2022-12-29T05:02:28;99688.13;;;9.35;100.00
33189;BME280;52601;53.070;10.600;2022-12-29T05:05:14;99682.16;;;9.33;100.00
33189;BME280;52601;53.070;10.600;2022-12-29T05:07:59;99696.91;;;9.34;100.00
33189;BME280;52601;53.070;10.600;2022-12-29T05:10:45;99662.63;;;9.24;100.00
33189;BME280;52601;53.070;10.600;2022-12-29T05:13:31;99677.97;;;9.30;100.00
33189;BME280;52601;53.070;10.600;2022-12-29T05:16:16;99678.03;;;9.29;100.00
33189;BME280;52601;53.070;10.600;2022-12-29T05:19:03;99673.38;;;9.34;100.00
33189;BME280;52601;53.070;10.600;2022-12-29T05:21:48;99678.41;;;9.37;100.00
33189;BME280;52601;53.070;10.600;2022-12-29T05:24:34;99687.84;;;9.39;100.00
33189;BME280;52601;53.070;10.600;2022-12-29T05:27:19;99668.44;;;9.43;100.00
33189;BME280;52601;53.070;10.600;2022-12-29T05:30:06;99677.69;;;9.49;100.00
33189;BME280;52601;53.070;10.600;2022-12-29T05:32:52;99675.53;;;9.55;100.00
33189;BME280;52601;53.070;10.600;2022-12-29T05:35:37;99652.91;;;9.54;100.00
33189;BME280;52601;53.070;10.600;2022-12-29T05:38:23;99653.00;;;9.53;100.00
33189;BME280;52601;53.070;10.600;2022-12-29T05:41:09;99659.56;;;9.60;100.00
33189;BME280;52601;53.070;10.600;2022-12-29T05:43:54;99654.59;;;9.55;100.00
33189;BME280;52601;53.070;10.600;2022-12-29T05:46:40;99672.44;;;9.77;100.00
33189;BME280;52601;53.070;10.600;2022-12-29T05:49:25;99653.97;;;9.66;100.00
33189;BME280;52601;53.070;10.600;2022-12-29T05:52:11;99652.34;;;9.78;100.00
33189;BME280;52601;53.070;10.600;2022-12-29T05:54:56;99665.06;;;9.84;100.00
33189;BME280;52601;53.070;10.600;2022-12-29T05:57:42;99663.94;;;9.88;100.00
33189;BME280;52601;53.070;10.600;2022-12-29T06:00:28;99650.09;;;9.86;100.00
33189;BME280;52601;53.070;10.600;2022-12-29T06:03:13;99637.50;;;9.78;100.00
33189;BME280;52601;53.070;10.600;2022-12-29T06:05:59;99658.75;;;10.00;100.00
33189;BME280;52601;53.070;10.600;2022-12-29T06:08:44;99649.72;;;9.92;100.00
33189;BME280;52601;53.070;10.600;2022-12-29T06:11:30;99651.28;;;9.94;100.00
33189;BME280;52601;53.070;10.600;2022-12-29T06:14:15;99653.34;;;10.03;100.00
33189;BME280;52601;53.070;10.600;2022-12-29T06:17:01;99660.84;;;9.95;100.00
33189;BME280;52601;53.070;10.600;2022-12-29T06:19:47;99655.22;;;10.01;100.00
33189;BME280;52601;53.070;10.600;2022-12-29T06:22:32;99652.97;;;10.09;100.00
33189;BME280;52601;53.070;10.600;2022-12-29T06:25:18;99634.06;;;10.04;100.00
33189;BME280;52601;53.070;10.600;2022-12-29T06:28:03;99632.78;;;10.11;100.00
33189;BME280;52601;53.070;10.600;2022-12-29T06:30:50;99641.84;;;10.20;100.00
33189;BME280;52601;53.070;10.600;2022-12-29T06:33:37;99622.94;;;10.01;100.00
33189;BME280;52601;53.070;10.600;2022-12-29T06:36:22;99644.84;;;10.14;100.00
33189;BME280;52601;53.070;10.600;2022-12-29T06:39:09;99653.34;;;10.03;100.00
33189;BME280;52601;53.070;10.600;2022-12-29T06:41:55;99619.59;;;9.99;100.00
33189;BME280;52601;53.070;10.600;2022-12-29T06:44:40;99637.63;;;10.17;100.00
33189;BME280;52601;53.070;10.600;2022-12-29T06:47:26;99647.72;;;10.23;100.00
33189;BME280;52601;53.070;10.600;2022-12-29T06:50:12;99637.97;;;10.25;100.00
33189;BME280;52601;53.070;10.600;2022-12-29T06:52:57;99643.19;;;10.39;100.00
33189;BME280;52601;53.070;10.600;2022-12-29T06:55:43;99584.50;;;10.15;100.00
33189;BME280;52601;53.070;10.600;2022-12-29T06:58:28;99627.97;;;10.45;100.00
33189;BME280;52601;53.070;10.600;2022-12-29T07:01:14;99631.25;;;10.48;100.00
33189;BME280;52601;53.070;10.600;2022-12-29T07:04:00;99632.81;;;10.51;100.00
33189;BME280;52601;53.070;10.600;2022-12-29T07:06:45;99613.84;;;10.47;100.00
33189;BME280;52601;53.070;10.600;2022-12-29T07:09:31;99642.63;;;10.61;100.00
33189;BME280;52601;53.070;10.600;2022-12-29T07:12:16;99641.81;;;10.73;100.00
33189;BME280;52601;53.070;10.600;2022-12-29T07:15:02;99655.75;;;10.74;100.00
33189;BME280;52601;53.070;10.600;2022-12-29T07:17:48;99628.97;;;10.56;100.00
33189;BME280;52601;53.070;10.600;2022-12-29T07:20:34;99645.69;;;10.68;100.00
33189;BME280;52601;53.070;10.600;2022-12-29T07:23:20;99654.66;;;10.51;100.00
33189;BME280;52601;53.070;10.600;2022-12-29T07:26:07;99663.94;;;10.43;100.00
33189;BME280;52601;53.070;10.600;2022-12-29T07:28:54;99678.13;;;10.26;100.00
33189;BME280;52601;53.070;10.600;2022-12-29T07:31:40;99665.81;;;10.14;100.00
33189;BME280;52601;53.070;10.600;2022-12-29T07:34:26;99670.53;;;10.07;100.00
33189;BME280;52601;53.070;10.600;2022-12-29T07:37:11;99671.84;;;10.00;100.00
33189;BME280;52601;53.070;10.600;2022-12-29T07:39:57;99706.84;;;9.99;100.00
33189;BME280;52601;53.070;10.600;2022-12-29T07:42:42;99687.78;;;9.83;100.00
33189;BME280;52601;53.070;10.600;2022-12-29T07:45:28;99696.19;;;9.88;100.00
33189;BME280;52601;53.070;10.600;2022-12-29T07:48:14;99689.75;;;9.66;100.00
33189;BME280;52601;53.070;10.600;2022-12-29T07:50:59;99716.41;;;9.72;100.00
33189;BME280;52601;53.070;10.600;2022-12-29T07:53:45;99738.38;;;9.70;100.00
33189;BME280;52601;53.070;10.600;2022-12-29T07:56:30;99758.44;;;9.69;100.00
33189;BME280;52601;53.070;10.600;2022-12-29T07:59:16;99744.13;;;9.61;100.00
33189;BME280;52601;53.070;10.600;2022-12-29T08:02:02;99754.91;;;9.56;100.00
33189;BME280;52601;53.070;10.600;2022-12-29T08:04:48;99749.56;;;9.57;100.00
33189;BME280;52601;53.070;10.600;2022-12-29T08:07:33;99743.00;;;9.50;100.00
33189;BME280;52601;53.070;10.600;2022-12-29T08:10:19;99724.63;;;9.52;100.00
33189;BME280;52601;53.070;10.600;2022-12-29T08:13:04;99725.25;;;9.55;100.00
33189;BME280;52601;53.070;10.600;2022-12-29T08:15:50;99737.50;;;9.55;100.00
33189;BME280;52601;53.070;10.600;2022-12-29T08:18:35;99726.75;;;9.45;100.00
33189;BME280;52601;53.070;10.600;2022-12-29T08:21:21;99746.84;;;9.59;100.00
33189;BME280;52601;53.070;10.600;2022-12-29T08:24:08;99762.75;;;9.56;100.00
33189;BME280;52601;53.070;10.600;2022-12-29T08:26:53;99754.50;;;9.48;100.00
33189;BME280;52601;53.070;10.600;2022-12-29T08:29:39;99732.88;;;9.44;100.00
33189;BME280;52601;53.070;10.600;2022-12-29T08:32:25;99748.31;;;9.49;100.00
33189;BME280;52601;53.070;10.600;2022-12-29T08:35:11;99733.13;;;9.55;100.00
33189;BME280;52601;53.070;10.600;2022-12-29T08:37:58;99719.28;;;9.68;100.00
33189;BME280;52601;53.070;10.600;2022-12-29T08:40:43;99721.44;;;9.61;100.00
33189;BME280;52601;53.070;10.600;2022-12-29T08:43:30;99740.72;;;9.74;100.00
33189;BME280;52601;53.070;10.600;2022-12-29T08:46:16;99748.09;;;9.82;100.00
33189;BME280;52601;53.070;10.600;2022-12-29T08:49:02;99751.53;;;9.96;100.00
33189;BME280;52601;53.070;10.600;2022-12-29T08:51:47;99751.75;;;10.07;100.00
33189;BME280;52601;53.070;10.600;2022-12-29T08:54:33;99747.44;;;10.34;100.00
33189;BME280;52601;53.070;10.600;2022-12-29T08:57:18;99742.97;;;10.22;100.00
33189;BME280;52601;53.070;10.600;2022-12-29T09:00:04;99738.09;;;10.16;100.00
33189;BME280;52601;53.070;10.600;2022-12-29T09:02:49;99729.72;;;10.38;100.00
33189;BME280;52601;53.070;10.600;2022-12-29T09:05:35;99705.91;;;10.28;100.00
33189;BME280;52601;53.070;10.600;2022-12-29T09:08:21;99739.72;;;10.86;100.00
33189;BME280;52601;53.070;10.600;2022-12-29T09:11:17;99744.06;;;11.52;100.00
33189;BME280;52601;53.070;10.600;2022-12-29T09:14:03;99740.22;;;11.95;100.00
33189;BME280;52601;53.070;10.600;2022-12-29T09:16:51;99744.34;;;11.35;100.00
33189;BME280;52601;53.070;10.600;2022-12-29T09:19:56;99751.91;;;11.26;100.00
33189;BME280;52601;53.070;10.600;2022-12-29T09:22:42;99751.94;;;12.63;100.00
33189;BME280;52601;53.070;10.600;2022-12-29T09:25:28;99739.16;;;13.30;100.00
33189;BME280;52601;53.070;10.600;2022-12-29T09:28:13;99747.16;;;13.96;96.07
33189;BME280;52601;53.070;10.600;2022-12-29T09:30:59;99767.38;;;13.73;93.88
33189;BME280;52601;53.070;10.600;2022-12-29T09:33:45;99751.31;;;13.20;99.00
33189;BME280;52601;53.070;10.600;2022-12-29T09:36:31;99764.53;;;12.71;98.17
33189;BME280;52601;53.070;10.600;2022-12-29T09:39:17;99772.25;;;12.00;100.00
33189;BME280;52601;53.070;10.600;2022-12-29T09:42:43;99775.84;;;11.86;100.00
33189;BME280;52601;53.070;10.600;2022-12-29T09:45:44;99783.41;;;11.78;100.00
33189;BME280;52601;53.070;10.600;2022-12-29T09:48:35;99782.66;;;12.01;100.00
33189;BME280;52601;53.070;10.600;2022-12-29T09:51:23;99775.19;;;11.95;100.00
33189;BME280;52601;53.070;10.600;2022-12-29T09:54:26;99789.38;;;11.80;100.00
33189;BME280;52601;53.070;10.600;2022-12-29T09:57:19;99774.69;;;11.39;100.00
33189;BME280;52601;53.070;10.600;2022-12-29T10:00:20;99773.34;;;11.46;100.00
33189;BME280;52601;53.070;10.600;2022-12-29T10:03:15;99773.47;;;11.57;100.00
33189;BME280;52601;53.070;10.600;2022-12-29T10:06:12;99766.16;;;11.74;100.00
33189;BME280;52601;53.070;10.600;2022-12-29T10:09:41;99773.84;;;12.02;100.00
33189;BME280;52601;53.070;10.600;2022-12-29T10:15:46;99774.50;;;13.95;92.14
33189;BME280;52601;53.070;10.600;2022-12-29T10:18:53;99760.84;;;14.56;85.72
33189;BME280;52601;53.070;10.600;2022-12-29T10:21:59;99756.91;;;15.25;81.79
33189;BME280;52601;53.070;10.600;2022-12-29T10:24:49;99767.44;;;16.49;74.16
33189;BME280;52601;53.070;10.600;2022-12-29T10:27:36;99757.47;;;16.42;74.07
33189;BME280;52601;53.070;10.600;2022-12-29T10:30:22;99752.88;;;14.67;79.55
33189;BME280;52601;53.070;10.600;2022-12-29T10:33:14;99788.63;;;16.59;74.84
33189;BME280;52601;53.070;10.600;2022-12-29T10:36:18;99782.63;;;17.73;68.03
33189;BME280;52601;53.070;10.600;2022-12-29T10:44:56;99769.91;;;19.66;59.86
33189;BME280;52601;53.070;10.600;2022-12-29T10:47:51;99773.47;;;18.77;61.65
33189;BME280;52601;53.070;10.600;2022-12-29T10:50:38;99775.13;;;19.76;59.12
33189;BME280;52601;53.070;10.600;2022-12-29T10:53:43;99751.50;;;19.55;58.06
33189;BME280;52601;53.070;10.600;2022-12-29T10:56:34;99756.47;;;21.19;57.35
33189;BME280;52601;53.070;10.600;2022-12-29T10:59:23;99769.34;;;21.39;55.07
33189;BME280;52601;53.070;10.600;2022-12-29T11:05:05;99768.16;;;21.74;53.75
33189;BME280;52601;53.070;10.600;2022-12-29T11:07:59;99785.03;;;21.59;52.65
33189;BME280;52601;53.070;10.600;2022-12-29T11:10:45;99755.63;;;21.10;55.28
33189;BME280;52601;53.070;10.600;2022-12-29T11:13:33;99772.41;;;19.94;57.62
33189;BME280;52601;53.070;10.600;2022-12-29T11:16:28;99765.72;;;18.30;60.63
33189;BME280;52601;53.070;10.600;2022-12-29T11:19:24;99776.69;;;18.07;63.27
33189;BME280;52601;53.070;10.600;2022-12-29T11:22:21;99752.59;;;18.28;63.48
33189;BME280;52601;53.070;10.600;2022-12-29T11:25:12;99757.19;;;19.08;61.05
33189;BME280;52601;53.070;10.600;2022-12-29T11:28:13;99746.72;;;20.10;57.03
33189;BME280;52601;53.070;10.600;2022-12-29T11:31:00;99760.69;;;20.72;54.23
33189;BME280;52601;53.070;10.600;2022-12-29T11:33:46;99738.75;;;20.94;53.87
33189;BME280;52601;53.070;10.600;2022-12-29T11:36:33;99747.81;;;21.25;52.25
33189;BME280;52601;53.070;10.600;2022-12-29T11:39:27;99737.50;;;22.33;51.84
33189;BME280;52601;53.070;10.600;2022-12-29T11:42:16;99741.28;;;22.00;51.93
33189;BME280;52601;53.070;10.600;2022-12-29T11:45:23;99734.13;;;21.68;51.40
33189;BME280;52601;53.070;10.600;2022-12-29T11:48:17;99745.84;;;22.38;51.12
33189;BME280;52601;53.070;10.600;2022-12-29T11:51:04;99740.13;;;21.22;50.69
33189;BME280;52601;53.070;10.600;2022-12-29T11:53:51;99747.56;;;20.94;50.87
33189;BME280;52601;53.070;10.600;2022-12-29T11:56:42;99742.81;;;20.56;51.93
33189;BME280;52601;53.070;10.600;2022-12-29T12:02:30;99745.16;;;21.25;52.15
33189;BME280;52601;53.070;10.600;2022-12-29T12:05:41;99736.00;;;22.39;49.47
33189;BME280;52601;53.070;10.600;2022-12-29T12:11:30;99754.97;;;21.16;49.57
33189;BME280;52601;53.070;10.600;2022-12-29T12:14:24;99766.16;;;17.79;56.50
33189;BME280;52601;53.070;10.600;2022-12-29T12:17:21;99761.75;;;16.63;61.66
33189;BME280;52601;53.070;10.600;2022-12-29T12:20:36;99753.78;;;18.53;59.03
33189;BME280;52601;53.070;10.600;2022-12-29T12:23:32;99752.63;;;17.24;59.31
33189;BME280;52601;53.070;10.600;2022-12-29T12:26:30;99752.03;;;15.52;63.18
33189;BME280;52601;53.070;10.600;2022-12-29T12:29:40;99762.63;;;14.56;65.69
33189;BME280;52601;53.070;10.600;2022-12-29T12:32:44;99758.34;;;14.55;66.34
33189;BME280;52601;53.070;10.600;2022-12-29T12:35:44;99757.78;;;15.67;63.55
33189;BME280;52601;53.070;10.600;2022-12-29T12:38:46;99757.69;;;15.48;63.15
33189;BME280;52601;53.070;10.600;2022-12-29T12:41:54;99768.53;;;15.02;64.50
33189;BME280;52601;53.070;10.600;2022-12-29T12:44:57;99760.22;;;14.64;64.64
33189;BME280;52601;53.070;10.600;2022-12-29T12:47:49;99786.47;;;14.10;69.42
33189;BME280;52601;53.070;10.600;2022-12-29T12:50:55;99787.88;;;13.70;69.80
33189;BME280;52601;53.070;10.600;2022-12-29T12:54:18;99772.00;;;13.48;69.53
33189;BME280;52601;53.070;10.600;2022-12-29T12:57:31;99782.16;;;12.94;74.32
33189;BME280;52601;53.070;10.600;2022-12-29T13:00:20;99794.34;;;12.95;73.34
33189;BME280;52601;53.070;10.600;2022-12-29T13:03:13;99785.72;;;12.93;75.47
33189;BME280;52601;53.070;10.600;2022-12-29T13:12:18;99787.25;;;12.84;75.58
33189;BME280;52601;53.070;10.600;2022-12-29T13:18:37;99781.88;;;12.86;75.04
33189;BME280;52601;53.070;10.600;2022-12-29T13:21:56;99800.09;;;12.40;77.35
33189;BME280;52601;53.070;10.600;2022-12-29T13:31:39;99799.91;;;11.93;85.92
33189;BME280;52601;53.070;10.600;2022-12-29T13:34:51;99793.28;;;11.87;84.14
33189;BME280;52601;53.070;10.600;2022-12-29T13:37:49;99809.78;;;12.02;83.82
33189;BME280;52601;53.070;10.600;2022-12-29T13:40:40;99813.66;;;12.09;83.36
33189;BME280;52601;53.070;10.600;2022-12-29T13:43:30;99800.31;;;11.99;82.77
33189;BME280;52601;53.070;10.600;2022-12-29T13:46:33;99809.66;;;12.03;82.95
33189;BME280;52601;53.070;10.600;2022-12-29T13:49:22;99819.16;;;12.19;82.55
33189;BME280;52601;53.070;10.600;2022-12-29T13:52:18;99797.69;;;11.99;83.19
33189;BME280;52601;53.070;10.600;2022-12-29T13:58:33;99830.47;;;12.19;81.86
33189;BME280;52601;53.070;10.600;2022-12-29T14:01:31;99821.97;;;12.03;82.21
33189;BME280;52601;53.070;10.600;2022-12-29T14:04:28;99820.50;;;11.99;83.99
33189;BME280;52601;53.070;10.600;2022-12-29T14:07:16;99831.31;;;12.07;82.19
33189;BME280;52601;53.070;10.600;2022-12-29T14:10:02;99844.66;;;11.91;83.31
33189;BME280;52601;53.070;10.600;2022-12-29T14:12:48;99852.03;;;11.86;84.95
33189;BME280;52601;53.070;10.600;2022-12-29T14:15:38;99826.34;;;11.77;84.69
33189;BME280;52601;53.070;10.600;2022-12-29T14:18:28;99825.84;;;11.72;86.45
33189;BME280;52601;53.070;10.600;2022-12-29T14:24:28;99844.66;;;11.79;85.89
33189;BME280;52601;53.070;10.600;2022-12-29T14:30:49;99855.25;;;11.77;84.37
33189;BME280;52601;53.070;10.600;2022-12-29T14:33:35;99855.56;;;11.73;85.75
33189;BME280;52601;53.070;10.600;2022-12-29T14:36:25;99862.78;;;11.69;85.83
33189;BME280;52601;53.070;10.600;2022-12-29T14:39:32;99893.50;;;11.69;87.32
33189;BME280;52601;53.070;10.600;2022-12-29T14:42:20;99892.53;;;11.70;86.87
33189;BME280;52601;53.070;10.600;2022-12-29T14:45:27;99888.59;;;11.63;87.71
33189;BME280;52601;53.070;10.600;2022-12-29T14:48:32;99909.78;;;11.47;89.02
33189;BME280;52601;53.070;10.600;2022-12-29T14:51:27;99891.22;;;11.36;88.22
33189;BME280;52601;53.070;10.600;2022-12-29T14:57:35;99911.13;;;11.26;89.79
33189;BME280;52601;53.070;10.600;2022-12-29T15:00:25;99912.75;;;11.14;90.44
33189;BME280;52601;53.070;10.600;2022-12-29T15:06:08;99923.38;;;10.99;93.17
33189;BME280;52601;53.070;10.600;2022-12-29T15:09:27;99914.66;;;10.98;94.24
33189;BME280;52601;53.070;10.600;2022-12-29T15:15:26;99939.41;;;10.94;96.26
33189;BME280;52601;53.070;10.600;2022-12-29T15:18:33;99945.88;;;10.89;97.75
33189;BME280;52601;53.070;10.600;2022-12-29T15:21:25;99946.63;;;10.63;100.00
33189;BME280;52601;53.070;10.600;2022-12-29T15:24:11;99961.13;;;10.68;99.36
33189;BME280;52601;53.070;10.600;2022-12-29T15:26:56;99961.34;;;10.79;98.20
33189;BME280;52601;53.070;10.600;2022-12-29T15:29:46;99939.78;;;10.74;96.60
33189;BME280;52601;53.070;10.600;2022-12-29T15:32:43;99964.69;;;10.81;95.76
33189;BME280;52601;53.070;10.600;2022-12-29T15:35:33;99971.50;;;10.98;94.46
33189;BME280;52601;53.070;10.600;2022-12-29T15:38:25;99976.59;;;10.73;95.95
33189;BME280;52601;53.070;10.600;2022-12-29T15:41:43;99960.38;;;10.80;93.71
33189;BME280;52601;53.070;10.600;2022-12-29T15:44:45;100007.41;;;10.97;93.23
33189;BME280;52601;53.070;10.600;2022-12-29T15:47:31;99967.50;;;10.78;92.51
33189;BME280;52601;53.070;10.600;2022-12-29T15:50:27;99997.75;;;10.84;93.36
33189;BME280;52601;53.070;10.600;2022-12-29T15:53:23;100012.16;;;10.63;97.56
33189;BME280;52601;53.070;10.600;2022-12-29T15:56:13;100013.50;;;10.26;100.00
33189;BME280;52601;53.070;10.600;2022-12-29T15:59:00;100016.06;;;10.12;100.00
33189;BME280;52601;53.070;10.600;2022-12-29T16:01:46;100011.50;;;10.00;100.00
33189;BME280;52601;53.070;10.600;2022-12-29T16:04:32;100015.63;;;9.88;100.00
33189;BME280;52601;53.070;10.600;2022-12-29T16:07:37;100019.78;;;9.77;100.00